Time;durP1;ratioP1;P1;durP2;ratioP2;P2;SDS_P1;SDS_P2;PMS_P1;PMS_P2;Temp;Humidity;BMP_temperature;BMP_pressure;BME280_temperature;BME280_humidity;BME280_pressure;Samples;Min_cycle;Max_cycle;Signal;HPM_P1;HPM_P2
2021/10/04 00:01:14;;;;;;;3.45;1.17;;;;;;;12.89;75.48;100029.38;5073412;28;20056;-61
2021/10/04 00:03:41;;;;;;;3.38;1.00;;;;;;;12.86;75.20;100038.44;5073071;28;20048;-62
2021/10/04 00:06:11;;;;;;;2.30;1.00;;;;;;;12.83;74.65;100046.66;5073155;28;20068;-61
2021/10/04 00:08:38;;;;;;;5.50;1.50;;;;;;;12.84;74.58;100054.72;5073487;28;20064;-62
2021/10/04 00:11:06;;;;;;;3.35;1.20;;;;;;;12.90;75.00;100049.75;5073888;28;20052;-62
2021/10/04 00:13:35;;;;;;;4.07;1.25;;;;;;;12.93;75.36;100075.03;5073315;28;20063;-61
2021/10/04 00:16:02;;;;;;;2.87;0.90;;;;;;;12.91;75.07;100071.75;5073954;28;20052;-62
2021/10/04 00:18:30;;;;;;;2.10;0.98;;;;;;;12.90;75.08;100072.13;5072895;28;20486;-61
2021/10/04 00:20:57;;;;;;;1.70;0.90;;;;;;;12.88;74.99;100080.84;5072984;28;20061;-62
2021/10/04 00:23:25;;;;;;;2.70;0.98;;;;;;;12.89;75.10;100082.50;5073492;28;20048;-62
2021/10/04 00:25:52;;;;;;;1.88;0.90;;;;;;;12.88;74.50;100085.63;5073208;28;20053;-62
2021/10/04 00:28:19;;;;;;;1.80;1.00;;;;;;;12.85;75.44;100075.09;5073600;28;20060;-62
2021/10/04 00:30:48;;;;;;;2.45;1.00;;;;;;;12.93;75.04;100083.41;5073474;28;20052;-62
2021/10/04 00:33:16;;;;;;;3.95;1.20;;;;;;;12.96;75.36;100079.97;5073521;28;20052;-61
2021/10/04 00:35:43;;;;;;;2.67;1.10;;;;;;;12.87;74.21;100092.34;5073061;28;20405;-61
2021/10/04 00:38:11;;;;;;;3.05;1.10;;;;;;;12.78;74.63;100087.63;5073545;28;20053;-62
2021/10/04 00:40:38;;;;;;;2.38;1.20;;;;;;;12.76;74.28;100086.34;5069870;28;20052;-62
2021/10/04 00:43:06;;;;;;;2.20;1.08;;;;;;;12.84;75.09;100079.88;5086316;28;20048;-62
2021/10/04 00:45:34;;;;;;;3.30;1.20;;;;;;;12.89;74.27;100090.03;5093359;28;20511;-62
2021/10/04 00:48:03;;;;;;;2.38;1.08;;;;;;;12.87;74.63;100090.41;5093286;28;20052;-62
2021/10/04 00:50:31;;;;;;;1.83;0.90;;;;;;;12.88;74.52;100092.03;5077101;28;20056;-62
2021/10/04 00:52:59;;;;;;;2.28;1.20;;;;;;;12.87;73.76;100093.19;5073391;28;20052;-62
2021/10/04 00:55:27;;;;;;;2.10;0.95;;;;;;;12.91;75.29;100094.13;5072755;28;20048;-61
2021/10/04 00:57:56;;;;;;;2.72;0.80;;;;;;;12.98;74.91;100115.97;5073211;28;20053;-61
2021/10/04 01:00:28;;;;;;;3.08;0.80;;;;;;;12.83;74.29;100133.31;5072864;28;20057;-61
2021/10/04 01:02:56;;;;;;;2.63;1.40;;;;;;;12.85;74.53;100123.47;5072065;28;20067;-61
2021/10/04 01:05:25;;;;;;;2.20;0.90;;;;;;;12.77;74.23;100108.38;5072910;28;20064;-61
2021/10/04 01:07:53;;;;;;;3.42;1.00;;;;;;;12.85;74.18;100112.28;5073060;28;20414;-62
2021/10/04 01:10:21;;;;;;;2.95;0.82;;;;;;;12.76;74.15;100106.72;5072415;28;20055;-61
2021/10/04 01:12:51;;;;;;;3.33;1.23;;;;;;;12.82;74.77;100103.75;5072513;28;20554;-62
2021/10/04 01:15:20;;;;;;;0.95;0.80;;;;;;;12.69;74.59;100112.03;5072175;28;20405;-61
2021/10/04 01:17:48;;;;;;;2.03;1.00;;;;;;;12.69;74.99;100120.41;5072974;28;20056;-62
2021/10/04 01:20:18;;;;;;;2.72;1.00;;;;;;;12.58;74.73;100119.97;5072341;28;20056;-61
2021/10/04 01:22:45;;;;;;;5.18;1.00;;;;;;;12.61;74.77;100114.88;5072531;28;20052;-62
2021/10/04 01:25:16;;;;;;;1.92;0.98;;;;;;;12.67;75.08;100113.53;5071603;28;20486;-61
2021/10/04 01:27:46;;;;;;;2.63;0.80;;;;;;;12.56;75.02;100105.53;5072102;28;20056;-62
2021/10/04 01:30:15;;;;;;;2.15;0.80;;;;;;;12.61;74.80;100110.09;5071908;28;20057;-61
2021/10/04 01:32:44;;;;;;;1.60;0.90;;;;;;;12.52;74.87;100126.91;5072179;28;20483;-61
2021/10/04 01:35:12;;;;;;;3.13;1.15;;;;;;;12.49;75.13;100123.97;5072560;28;20060;-61
2021/10/04 01:37:41;;;;;;;3.55;1.10;;;;;;;12.54;75.32;100127.41;5072603;28;20490;-61
2021/10/04 01:40:11;;;;;;;2.38;0.93;;;;;;;12.50;75.24;100101.28;5072256;28;20045;-61
2021/10/04 01:42:39;;;;;;;1.50;0.80;;;;;;;12.54;75.54;100104.25;5072160;28;20063;-61
2021/10/04 01:45:09;;;;;;;2.63;1.00;;;;;;;12.52;75.44;100112.13;5072025;28;20499;-61
2021/10/04 01:47:38;;;;;;;2.58;0.73;;;;;;;12.47;75.10;100120.69;5072031;28;20072;-61
2021/10/04 01:50:07;;;;;;;2.05;0.90;;;;;;;12.49;75.46;100118.38;5072349;28;20108;-61
2021/10/04 01:52:35;;;;;;;3.08;1.00;;;;;;;12.54;75.52;100126.59;5072605;28;20057;-61
2021/10/04 01:55:04;;;;;;;3.47;1.10;;;;;;;12.55;75.92;100131.00;5071485;28;20067;-61
2021/10/04 01:57:34;;;;;;;2.63;0.90;;;;;;;12.55;75.73;100129.03;5071757;28;20052;-61
2021/10/04 02:00:02;;;;;;;;;;;;;;;12.49;75.84;100130.38;5071844;28;20063;-62
2021/10/04 02:02:32;;;;;;;6.15;1.20;;;;;;;12.44;76.06;100133.34;5072091;28;19921;-61
2021/10/04 02:04:59;;;;;;;;;;;;;;;12.36;75.38;100132.22;5072613;28;20052;-61
2021/10/04 02:07:26;;;;;;;8.68;5.05;;;;;;;12.36;75.73;100132.22;5071892;28;19920;-62
2021/10/04 02:09:54;;;;;;;4.72;1.80;;;;;;;12.33;76.25;100129.31;5071207;28;20057;-61
2021/10/04 02:12:23;;;;;;;2.30;1.40;;;;;;;12.36;76.29;100117.44;5072210;28;20486;-62
2021/10/04 02:14:50;;;;;;;2.33;1.07;;;;;;;12.23;75.87;100121.28;5075650;28;20446;-61
2021/10/04 02:17:20;;;;;;;3.35;1.27;;;;;;;12.25;75.95;100114.22;5076213;28;20475;-61
2021/10/04 02:19:48;;;;;;;2.15;1.10;;;;;;;12.32;76.24;100113.69;5075687;28;20079;-61
2021/10/04 02:22:18;;;;;;;4.22;1.85;;;;;;;12.34;75.84;100117.78;5075965;28;20052;-62
2021/10/04 02:24:45;;;;;;;3.08;0.98;;;;;;;12.34;76.18;100109.41;5074655;28;20441;-62
2021/10/04 02:27:12;;;;;;;2.60;1.08;;;;;;;12.40;76.31;100112.84;5075927;28;20064;-62
2021/10/04 02:29:41;;;;;;;1.85;0.88;;;;;;;12.41;75.75;100117.28;5075577;28;20052;-62
2021/10/04 02:32:09;;;;;;;2.50;1.10;;;;;;;12.39;75.46;100119.59;5076085;28;20056;-61
2021/10/04 02:34:36;;;;;;;3.78;1.42;;;;;;;12.36;75.47;100126.66;5075251;28;20048;-61
2021/10/04 02:37:04;;;;;;;5.50;4.65;;;;;;;12.36;75.78;100120.25;5075307;28;20056;-61
2021/10/04 02:39:32;;;;;;;3.63;1.60;;;;;;;12.35;75.76;100116.66;5074708;28;20438;-61
2021/10/04 02:42:02;;;;;;;2.38;1.40;;;;;;;12.30;76.00;100122.41;5075441;28;20056;-61
2021/10/04 02:44:29;;;;;;;2.85;1.52;;;;;;;12.31;76.00;100126.03;5075296;28;20525;-61
2021/10/04 02:46:59;;;;;;;2.35;1.17;;;;;;;12.32;75.72;100128.47;5075306;28;20067;-61
2021/10/04 02:49:26;;;;;;;1.67;1.10;;;;;;;12.28;76.34;100121.09;5075351;28;20583;-61
2021/10/04 02:51:54;;;;;;;1.90;0.95;;;;;;;12.31;76.18;100126.03;5075233;28;20056;-61
2021/10/04 02:54:21;;;;;;;3.65;1.10;;;;;;;12.34;75.92;100125.34;5075469;28;20053;-61
2021/10/04 02:56:49;;;;;;;1.60;0.90;;;;;;;12.31;75.39;100126.03;5075121;28;20060;-62
2021/10/04 02:59:16;;;;;;;2.42;1.00;;;;;;;12.31;75.82;100118.47;5075190;28;20487;-61
2021/10/04 03:01:45;;;;;;;2.70;1.10;;;;;;;12.33;75.87;100129.31;5074887;28;20505;-61
2021/10/04 03:04:14;;;;;;;2.30;0.98;;;;;;;12.34;75.80;100134.53;5074535;28;20056;-60
2021/10/04 03:06:41;;;;;;;3.50;0.90;;;;;;;12.37;75.51;100135.88;5074891;28;20060;-61
2021/10/04 03:09:09;;;;;;;3.90;1.00;;;;;;;12.37;75.54;100141.44;5074639;28;20060;-62
2021/10/04 03:11:36;;;;;;;3.35;1.00;;;;;;;12.39;75.13;100141.94;5074737;28;20056;-60
2021/10/04 03:14:04;;;;;;;3.63;0.90;;;;;;;12.39;75.36;100136.34;5075019;28;20052;-62
2021/10/04 03:16:32;;;;;;;4.30;0.95;;;;;;;12.39;74.89;100141.94;5074868;28;20056;-61
2021/10/04 03:18:59;;;;;;;2.85;1.00;;;;;;;12.38;75.33;100140.28;5074789;28;20056;-62
2021/10/04 03:21:28;;;;;;;3.15;1.20;;;;;;;12.42;74.88;100148.81;5074988;28;20056;-62
2021/10/04 03:23:56;;;;;;;6.77;1.77;;;;;;;12.44;74.89;100155.72;5073612;28;20517;-61
2021/10/04 03:26:23;;;;;;;2.67;1.10;;;;;;;12.47;75.06;100154.22;5073491;28;20044;-62
2021/10/04 03:28:54;;;;;;;1.88;1.30;;;;;;;12.48;74.94;100159.47;5074457;28;20059;-62
2021/10/04 03:31:22;;;;;;;4.13;1.20;;;;;;;12.53;74.88;100170.44;5074674;28;20435;-61
2021/10/04 03:33:49;;;;;;;1.60;0.80;;;;;;;12.43;74.56;100165.25;5074029;28;20053;-62
2021/10/04 03:36:16;;;;;;;1.85;0.90;;;;;;;12.50;74.78;100170.31;5074388;28;20482;-61
2021/10/04 03:38:45;;;;;;;3.05;1.20;;;;;;;12.56;74.51;100174.56;5074427;28;20064;-60
2021/10/04 03:41:12;;;;;;;3.40;0.90;;;;;;;12.58;74.95;100175.88;5074090;28;20422;-60
2021/10/04 03:43:42;;;;;;;5.78;1.13;;;;;;;12.63;74.67;100185.22;5074278;28;20056;-62
2021/10/04 03:46:10;;;;;;;3.17;1.00;;;;;;;12.68;74.25;100180.28;5073891;28;20055;-62
2021/10/04 03:48:37;;;;;;;4.57;1.15;;;;;;;12.69;74.18;100197.84;5074023;28;20048;-61
2021/10/04 03:51:04;;;;;;;2.33;1.00;;;;;;;12.72;73.86;100205.53;5074362;28;20057;-59
2021/10/04 03:53:32;;;;;;;2.10;0.93;;;;;;;12.80;73.90;100211.09;5073127;28;20056;-59
2021/10/04 03:56:01;;;;;;;2.08;1.02;;;;;;;12.81;73.35;100209.13;5072110;28;20052;-61
2021/10/04 03:58:28;;;;;;;5.03;1.00;;;;;;;12.83;73.65;100212.41;5074219;28;20068;-60
2021/10/04 04:00:56;;;;;;;3.30;0.90;;;;;;;12.88;72.89;100211.41;5074020;28;20052;-60
2021/10/04 04:03:23;;;;;;;2.25;0.73;;;;;;;12.94;72.72;100212.84;5073818;28;20049;-60
2021/10/04 04:05:51;;;;;;;4.93;0.85;;;;;;;12.93;72.25;100208.41;5073957;28;20483;-61
2021/10/04 04:08:21;;;;;;;3.45;0.80;;;;;;;12.95;72.75;100209.69;5073884;28;20059;-60
2021/10/04 04:10:48;;;;;;;;;;;;;;;12.85;71.73;100212.06;5073579;28;20053;-60
2021/10/04 04:13:17;;;;;;;2.55;0.98;;;;;;;12.83;72.47;100214.38;5073716;28;19927;-60
2021/10/04 04:15:44;;;;;;;2.08;0.80;;;;;;;12.90;71.99;100211.88;5073514;28;20498;-60
2021/10/04 04:18:11;;;;;;;1.85;0.80;;;;;;;12.95;72.51;100218.09;5074269;28;20059;-58
2021/10/04 04:20:39;;;;;;;2.30;1.00;;;;;;;12.99;72.31;100209.84;5073628;28;20057;-60
2021/10/04 04:23:06;;;;;;;4.07;0.70;;;;;;;12.99;71.80;100210.66;5073629;28;20079;-60
2021/10/04 04:25:34;;;;;;;1.90;0.80;;;;;;;12.96;72.51;100210.53;5072212;28;20056;-61
2021/10/04 04:28:01;;;;;;;1.98;0.80;;;;;;;12.87;71.63;100213.38;5073016;28;20061;-60
2021/10/04 04:30:30;;;;;;;3.30;0.70;;;;;;;12.98;72.03;100209.03;5073391;28;20064;-59
2021/10/04 04:32:58;;;;;;;1.80;0.68;;;;;;;12.99;71.85;100213.47;5073603;28;20063;-60
2021/10/04 04:35:28;;;;;;;2.00;0.70;;;;;;;13.08;71.86;100201.41;5073300;28;20048;-61
2021/10/04 04:37:55;;;;;;;1.45;0.80;;;;;;;13.03;71.94;100205.22;5072349;28;20068;-61
2021/10/04 04:40:23;;;;;;;3.35;0.73;;;;;;;13.01;72.01;100201.94;5072953;28;20414;-61
2021/10/04 04:42:52;;;;;;;1.92;0.85;;;;;;;13.09;71.84;100201.09;5073353;28;20056;-60
2021/10/04 04:45:21;;;;;;;2.47;0.85;;;;;;;13.06;71.57;100207.38;5072849;28;20060;-61
2021/10/04 04:47:50;;;;;;;1.75;0.80;;;;;;;13.04;71.75;100203.25;5072711;28;20063;-60
2021/10/04 04:50:18;;;;;;;3.03;1.00;;;;;;;13.07;71.10;100194.19;5072991;28;20057;-61
2021/10/04 04:52:46;;;;;;;1.65;0.80;;;;;;;12.94;71.30;100201.66;5072577;28;20483;-61
2021/10/04 04:55:14;;;;;;;1.60;0.60;;;;;;;12.96;71.64;100207.75;5072719;28;20052;-60
2021/10/04 04:57:42;;;;;;;2.22;0.70;;;;;;;13.09;71.83;100222.63;5073179;28;20052;-61
2021/10/04 05:00:13;;;;;;;2.65;0.80;;;;;;;13.07;71.46;100222.16;5072681;28;20053;-60
2021/10/04 05:02:41;;;;;;;3.22;1.02;;;;;;;13.06;71.81;100217.72;5072948;28;20060;-61
2021/10/04 05:05:16;;;;;;;2.08;0.90;;;;;;;13.03;70.88;100216.41;5072290;28;20083;-61
2021/10/04 05:07:44;;;;;;;2.17;0.90;;;;;;;13.07;72.28;100200.59;5072802;28;20454;-61
2021/10/04 05:10:13;;;;;;;2.25;1.00;;;;;;;13.15;71.55;100208.13;5072479;28;20407;-60
2021/10/04 05:12:41;;;;;;;2.22;1.00;;;;;;;13.22;71.46;100213.19;5067872;28;20053;-61
2021/10/04 05:15:10;;;;;;;1.70;0.80;;;;;;;13.24;71.75;100212.84;5052895;28;20057;-60
2021/10/04 05:17:38;;;;;;;2.43;0.80;;;;;;;13.27;70.72;100213.00;5061769;28;20065;-61
2021/10/04 05:20:09;;;;;;;3.47;0.80;;;;;;;13.14;71.44;100228.03;5069423;28;20482;-59
2021/10/04 05:22:37;;;;;;;2.47;0.90;;;;;;;13.24;71.56;100238.03;5069888;28;20052;-60
2021/10/04 05:25:06;;;;;;;2.92;0.82;;;;;;;13.18;71.08;100229.81;5070360;28;20052;-60
2021/10/04 05:27:34;;;;;;;5.43;1.50;;;;;;;13.23;71.70;100241.97;5072135;28;20533;-60
2021/10/04 05:30:01;;;;;;;4.07;0.90;;;;;;;13.17;71.39;100238.56;5071990;28;20071;-60
2021/10/04 05:32:29;;;;;;;2.30;1.10;;;;;;;13.25;71.21;100248.88;5072087;28;20056;-61
2021/10/04 05:34:56;;;;;;;7.55;1.63;;;;;;;13.31;70.76;100249.50;5070947;28;20056;-61
2021/10/04 05:37:24;;;;;;;3.10;0.70;;;;;;;13.33;70.55;100252.78;5072459;28;20052;-60
2021/10/04 05:39:52;;;;;;;1.40;0.70;;;;;;;13.30;70.68;100265.47;5071466;28;20405;-59
2021/10/04 05:42:20;;;;;;;1.95;0.82;;;;;;;13.27;71.21;100260.53;5071977;28;20063;-60
2021/10/04 05:44:47;;;;;;;1.60;0.80;;;;;;;13.29;71.04;100252.66;5071952;28;20068;-60
2021/10/04 05:47:15;;;;;;;2.40;1.00;;;;;;;13.22;70.68;100246.75;5069849;28;20067;-59
2021/10/04 05:49:42;;;;;;;1.20;0.70;;;;;;;13.37;71.46;100251.78;5071490;28;20064;-60
2021/10/04 05:52:10;;;;;;;1.63;0.80;;;;;;;13.44;71.00;100258.81;5070564;28;20063;-61
2021/10/04 05:54:37;;;;;;;1.95;0.75;;;;;;;13.52;71.00;100258.78;5070109;28;20052;-60
2021/10/04 05:57:08;;;;;;;1.83;0.80;;;;;;;13.57;70.43;100254.94;5070562;28;20056;-60
2021/10/04 05:59:36;;;;;;;3.15;0.95;;;;;;;13.58;70.60;100268.59;5069960;28;20057;-60
2021/10/04 06:02:04;;;;;;;6.22;1.17;;;;;;;13.59;70.41;100277.81;5070449;28;20067;-60
2021/10/04 06:04:31;;;;;;;2.85;0.80;;;;;;;13.65;70.68;100279.25;5068477;28;20052;-60
2021/10/04 06:06:59;;;;;;;2.45;1.02;;;;;;;13.72;70.59;100273.13;5070763;28;20067;-60
2021/10/04 06:09:26;;;;;;;3.60;1.92;;;;;;;13.75;69.67;100266.81;5070760;28;20380;-61
2021/10/04 06:11:53;;;;;;;1.67;0.85;;;;;;;13.83;69.44;100277.13;5070191;28;20052;-60
2021/10/04 06:14:23;;;;;;;1.85;1.02;;;;;;;13.83;69.28;100287.53;5070906;28;20424;-60
2021/10/04 06:16:52;;;;;;;3.17;1.00;;;;;;;13.88;69.27;100290.94;5070931;28;20052;-60
2021/10/04 06:19:19;;;;;;;3.60;0.90;;;;;;;13.96;69.22;100297.63;5069464;28;20053;-60
2021/10/04 06:21:47;;;;;;;2.17;0.82;;;;;;;13.92;68.96;100296.66;5071287;28;20063;-60
2021/10/04 06:24:14;;;;;;;2.85;0.93;;;;;;;13.89;69.26;100297.38;5069838;28;20063;-60
2021/10/04 06:26:42;;;;;;;3.08;1.40;;;;;;;13.96;68.76;100298.47;5069090;28;20474;-60
2021/10/04 06:29:09;;;;;;;2.70;0.98;;;;;;;13.90;69.29;100310.19;5065314;28;20059;-60
2021/10/04 06:31:38;;;;;;;2.38;0.80;;;;;;;13.97;68.59;100321.69;5058929;28;20418;-60
2021/10/04 06:34:06;;;;;;;2.97;1.10;;;;;;;14.00;68.95;100321.78;5051567;28;20057;-60
2021/10/04 06:36:33;;;;;;;2.53;1.00;;;;;;;14.09;68.57;100321.75;5051241;28;20064;-60
2021/10/04 06:39:00;;;;;;;2.75;0.98;;;;;;;14.00;68.81;100321.78;5050696;28;20057;-60
2021/10/04 06:41:28;;;;;;;2.78;1.00;;;;;;;14.04;67.77;100321.13;5051365;28;20053;-60
2021/10/04 06:43:55;;;;;;;2.05;0.95;;;;;;;14.13;68.05;100333.06;5050691;28;20463;-60
2021/10/04 06:46:22;;;;;;;2.75;0.88;;;;;;;14.07;67.82;100337.25;5060140;28;20065;-61
2021/10/04 06:48:51;;;;;;;2.95;0.80;;;;;;;14.15;67.40;100339.16;5051545;28;20057;-61
2021/10/04 06:51:18;;;;;;;2.20;0.90;;;;;;;14.14;67.23;100341.13;5051299;28;20063;-60
2021/10/04 06:53:46;;;;;;;2.63;0.80;;;;;;;14.17;67.56;100343.28;5051223;28;20510;-61
2021/10/04 06:56:13;;;;;;;1.98;0.80;;;;;;;14.23;66.90;100346.66;5051043;28;20053;-60
2021/10/04 06:58:41;;;;;;;1.67;1.05;;;;;;;14.39;67.30;100346.88;5051917;28;20049;-60
2021/10/04 07:01:11;;;;;;;2.75;0.77;;;;;;;14.35;67.39;100355.13;5073439;28;20400;-61
2021/10/04 07:03:39;;;;;;;3.70;0.90;;;;;;;14.53;65.89;100344.59;5073475;28;20056;-60
2021/10/04 07:06:08;;;;;;;2.45;1.00;;;;;;;14.54;66.07;100356.63;5073982;28;20162;-60
2021/10/04 07:08:36;;;;;;;4.53;1.77;;;;;;;14.55;65.46;100359.13;5059583;28;20072;-60
2021/10/04 07:11:04;;;;;;;4.50;2.17;;;;;;;14.60;65.99;100361.69;5061176;28;20056;-60
2021/10/04 07:13:31;;;;;;;2.78;1.75;;;;;;;14.63;65.19;100373.41;5067591;28;20056;-60
2021/10/04 07:15:59;;;;;;;7.00;3.28;;;;;;;14.72;65.18;100358.13;5067772;28;20057;-60
2021/10/04 07:18:26;;;;;;;3.25;1.55;;;;;;;14.61;65.38;100357.75;5070165;28;20051;-60
2021/10/04 07:20:55;;;;;;;11.85;4.53;;;;;;;14.69;65.92;100363.59;5073508;28;20056;-60
2021/10/04 07:23:24;;;;;;;4.28;2.10;;;;;;;14.75;65.27;100367.84;5072614;28;20071;-60
2021/10/04 07:25:52;;;;;;;9.90;4.50;;;;;;;14.86;65.18;100360.63;5066458;28;20166;-60
2021/10/04 07:28:19;;;;;;;13.55;4.70;;;;;;;15.06;64.81;100360.91;5056961;28;20514;-60
2021/10/04 07:30:48;;;;;;;38.38;17.77;;;;;;;15.14;64.71;100368.38;5069080;28;20411;-60
2021/10/04 07:33:16;;;;;;;10.15;5.03;;;;;;;14.89;65.44;100375.91;5062801;28;20056;-57
2021/10/04 07:35:43;;;;;;;13.45;6.65;;;;;;;14.90;65.15;100380.38;5052994;28;20064;-60
2021/10/04 07:38:10;;;;;;;3.13;1.00;;;;;;;14.90;64.39;100374.78;5067376;28;20068;-60
2021/10/04 07:40:39;;;;;;;2.70;1.02;;;;;;;14.93;64.18;100369.28;5068811;28;20533;-60
2021/10/04 07:43:07;;;;;;;2.80;0.93;;;;;;;14.80;65.10;100381.63;5057576;28;20057;-60
2021/10/04 07:45:35;;;;;;;2.20;0.77;;;;;;;14.91;64.95;100380.03;5067856;28;20481;-61
2021/10/04 07:48:02;;;;;;;3.28;1.02;;;;;;;14.98;64.52;100363.47;5063873;28;20056;-59
2021/10/04 07:50:30;;;;;;;1.90;0.90;;;;;;;15.04;63.49;100374.47;5060183;28;20055;-61
2021/10/04 07:52:58;;;;;;;2.55;0.65;;;;;;;14.88;64.30;100371.50;5054752;28;20067;-61
2021/10/04 07:55:26;;;;;;;3.03;1.10;;;;;;;14.84;64.36;100367.75;5070037;28;20067;-60
2021/10/04 07:57:55;;;;;;;2.03;0.80;;;;;;;14.78;64.85;100369.94;5061530;28;20056;-61
2021/10/04 08:00:22;;;;;;;2.63;0.70;;;;;;;14.96;64.50;100371.41;5071588;28;20384;-61
2021/10/04 08:02:50;;;;;;;2.55;0.70;;;;;;;14.87;65.01;100378.28;5067359;28;20067;-60
2021/10/04 08:05:17;;;;;;;2.53;0.88;;;;;;;14.99;63.85;100373.53;5044116;28;20064;-58
2021/10/04 08:07:44;;;;;;;1.70;0.73;;;;;;;15.00;63.94;100382.75;5039066;28;20507;-60
2021/10/04 08:10:12;;;;;;;2.10;0.88;;;;;;;14.72;65.16;100386.16;5047384;28;20068;-61
2021/10/04 08:12:40;;;;;;;2.40;0.85;;;;;;;14.93;64.68;100369.28;5034335;28;20065;-61
2021/10/04 08:15:09;;;;;;;2.90;1.10;;;;;;;14.98;64.13;100371.06;5047447;28;20065;-60
2021/10/04 08:17:37;;;;;;;2.72;1.00;;;;;;;15.06;64.75;100378.56;5039424;28;20053;-60
2021/10/04 08:20:08;;;;;;;2.35;0.75;;;;;;;15.15;63.76;100368.03;5049950;28;20061;-61
2021/10/04 08:22:35;;;;;;;2.60;0.80;;;;;;;15.30;62.97;100374.97;5032264;28;20068;-60
2021/10/04 08:25:03;;;;;;;2.10;1.02;;;;;;;15.45;62.71;100367.84;5042513;28;20056;-60
2021/10/04 08:27:31;;;;;;;1.63;0.85;;;;;;;15.74;60.75;100364.00;5049737;28;20068;-61
2021/10/04 08:29:58;;;;;;;3.67;1.42;;;;;;;16.03;60.98;100359.31;5050375;28;20057;-60
2021/10/04 08:32:27;;;;;;;3.22;0.80;;;;;;;15.90;61.56;100369.75;5037753;28;20057;-60
2021/10/04 08:34:54;;;;;;;2.30;0.97;;;;;;;16.44;60.11;100362.91;5031321;28;20057;-60
2021/10/04 08:37:21;;;;;;;1.80;0.80;;;;;;;16.64;59.37;100367.53;5040717;28;20063;-60
2021/10/04 08:39:49;;;;;;;2.58;0.80;;;;;;;16.66;59.21;100369.19;5044481;28;20443;-61
2021/10/04 08:42:18;;;;;;;2.65;0.77;;;;;;;16.91;59.26;100370.72;5049029;28;20383;-60
2021/10/04 08:44:48;;;;;;;2.30;0.70;;;;;;;17.10;58.53;100378.47;5041922;28;20067;-60
2021/10/04 08:47:16;;;;;;;1.95;0.93;;;;;;;16.92;58.60;100380.78;5042078;28;20392;-60
2021/10/04 08:49:44;;;;;;;1.55;0.70;;;;;;;17.07;58.01;100386.81;5032800;28;20065;-61
2021/10/04 08:52:12;;;;;;;2.17;0.93;;;;;;;17.07;57.67;100375.56;5048882;28;20056;-61
2021/10/04 08:54:39;;;;;;;2.35;0.85;;;;;;;17.02;57.71;100374.63;5044697;28;20059;-60
2021/10/04 08:57:08;;;;;;;2.63;0.80;;;;;;;17.07;58.28;100372.72;5044653;28;20049;-61
2021/10/04 08:59:35;;;;;;;1.65;1.15;;;;;;;17.38;57.60;100349.41;5041230;28;20061;-61
2021/10/04 09:02:23;;;;;;;2.75;0.90;;;;;;;17.54;56.56;100364.31;5041503;28;20049;-61
2021/10/04 09:05:11;;;;;;;1.98;0.85;;;;;;;17.37;56.26;100373.94;5058371;28;20053;-61
2021/10/04 09:07:40;;;;;;;2.28;0.90;;;;;;;17.33;56.54;100347.69;5066054;28;20056;-61
2021/10/04 09:10:08;;;;;;;2.47;0.90;;;;;;;17.51;57.20;100347.31;5068918;28;20061;-61
2021/10/04 09:12:44;;;;;;;2.00;0.90;;;;;;;17.34;57.35;100351.31;5057685;28;20067;-59
2021/10/04 09:15:30;;;;;;;2.10;0.90;;;;;;;17.69;56.10;100342.94;5065057;28;20445;-60
2021/10/04 09:18:00;;;;;;;4.22;0.98;;;;;;;17.37;57.40;100353.44;5061526;28;20056;-60
2021/10/04 09:20:46;;;;;;;;;;;;;;;17.36;56.44;100375.13;5064332;28;20071;-60
2021/10/04 09:23:52;;;;;;;2.60;0.88;;;;;;;17.75;55.88;100374.47;5057132;28;19938;-58
2021/10/04 09:26:34;;;;;;;1.30;0.80;;;;;;;18.56;53.74;100382.34;5062141;28;20060;-61
2021/10/04 09:29:04;;;;;;;4.13;0.90;;;;;;;18.28;54.56;100386.19;5054931;28;20056;-58
2021/10/04 09:31:33;;;;;;;1.85;0.70;;;;;;;18.23;54.17;100400.59;5062439;28;20084;-60
2021/10/04 09:34:06;;;;;;;1.83;0.95;;;;;;;18.13;54.39;100390.69;5065567;28;20061;-61
2021/10/04 09:36:36;;;;;;;2.50;0.85;;;;;;;17.82;54.95;100388.72;5058733;28;20068;-60
2021/10/04 09:39:16;;;;;;;2.15;0.90;;;;;;;17.58;55.21;100390.56;5069578;28;20056;-61
2021/10/04 09:42:05;;;;;;;3.28;1.20;;;;;;;17.76;56.26;100388.16;5063650;28;20071;-60
2021/10/04 09:44:51;;;;;;;1.83;0.80;;;;;;;17.48;56.23;100382.66;5069703;28;20079;-60
2021/10/04 09:47:21;;;;;;;3.95;1.00;;;;;;;17.26;57.31;100381.31;5061138;28;20060;-60
2021/10/04 09:49:51;;;;;;;2.22;0.80;;;;;;;17.19;57.80;100392.38;5057465;28;20049;-60
2021/10/04 09:52:32;;;;;;;2.75;1.17;;;;;;;17.41;57.46;100382.50;5062428;28;20061;-60
2021/10/04 09:54:59;;;;;;;2.78;1.00;;;;;;;17.57;56.96;100382.47;5062213;28;20056;-60
2021/10/04 09:57:29;;;;;;;2.58;0.90;;;;;;;17.68;57.27;100372.31;5066493;28;20063;-60
2021/10/04 09:59:57;;;;;;;4.07;1.20;;;;;;;18.71;54.54;100375.81;5060758;28;20057;-61
2021/10/04 10:02:24;;;;;;;3.63;1.08;;;;;;;19.41;51.69;100388.84;5066613;28;20052;-60
2021/10/04 10:04:53;;;;;;;2.65;0.93;;;;;;;19.61;51.29;100377.47;5068711;28;20525;-60
2021/10/04 10:07:22;;;;;;;2.33;1.20;;;;;;;20.93;48.26;100383.41;5054612;28;20052;-60
2021/10/04 10:09:49;;;;;;;2.33;0.95;;;;;;;23.55;41.80;100379.31;5058672;28;20064;-60
2021/10/04 10:12:16;;;;;;;3.83;0.98;;;;;;;23.00;42.14;100392.59;5056695;28;20483;-60
2021/10/04 10:14:45;;;;;;;3.20;0.90;;;;;;;21.60;45.05;100388.94;5064769;28;20072;-60
2021/10/04 10:17:18;;;;;;;3.53;0.90;;;;;;;20.71;47.13;100394.47;5063500;28;20053;-60
2021/10/04 10:19:51;;;;;;;2.40;1.05;;;;;;;19.91;49.21;100380.41;5056507;28;20065;-60
2021/10/04 10:22:24;;;;;;;1.90;1.10;;;;;;;19.39;49.54;100405.34;5063447;28;20426;-60
2021/10/04 10:24:53;;;;;;;2.70;1.10;;;;;;;19.25;50.10;100400.25;5060945;28;20056;-60
2021/10/04 10:27:33;;;;;;;2.95;0.90;;;;;;;19.52;50.49;100396.69;5055359;28;20079;-59
2021/10/04 10:30:16;;;;;;;1.75;0.93;;;;;;;19.95;49.43;100380.44;5062694;28;20505;-60
2021/10/04 10:32:44;;;;;;;2.47;1.13;;;;;;;21.54;45.98;100375.53;5068014;28;20068;-60
2021/10/04 10:35:11;;;;;;;3.10;1.00;;;;;;;21.20;46.19;100375.59;5056698;28;20491;-60
2021/10/04 10:37:49;;;;;;;1.70;0.77;;;;;;;20.96;46.44;100360.78;5069250;28;20499;-60
2021/10/04 10:40:20;;;;;;;4.32;1.02;;;;;;;20.66;47.82;100384.31;5065831;28;20061;-60
2021/10/04 10:43:02;;;;;;;2.28;0.85;;;;;;;20.91;46.82;100392.28;5070412;28;20065;-59
2021/10/04 10:45:41;;;;;;;2.05;1.00;;;;;;;21.60;45.32;100388.94;5071378;28;20056;-60
2021/10/04 10:48:10;;;;;;;2.25;0.90;;;;;;;22.53;42.71;100382.28;5062954;28;20079;-60
2021/10/04 10:50:42;;;;;;;1.83;1.08;;;;;;;23.49;41.08;100384.59;5063010;28;20079;-59
2021/10/04 10:53:20;;;;;;;2.17;1.00;;;;;;;23.76;39.95;100375.66;5069154;28;20057;-60
2021/10/04 10:55:55;;;;;;;2.88;1.13;;;;;;;23.90;39.07;100373.66;5069619;28;20057;-59
2021/10/04 10:58:24;;;;;;;2.85;1.10;;;;;;;24.09;39.53;100380.94;5069604;28;20062;-59
2021/10/04 11:01:20;;;;;;;1.90;1.05;;;;;;;24.35;39.08;100366.63;5068778;28;20063;-60
2021/10/04 11:03:51;;;;;;;2.53;1.70;;;;;;;25.37;36.04;100372.25;5063738;28;20060;-60
2021/10/04 11:06:19;;;;;;;3.78;1.13;;;;;;;27.01;33.43;100380.34;5065572;28;20064;-61
2021/10/04 11:09:10;;;;;;;3.72;1.30;;;;;;;27.80;32.62;100366.88;5070637;28;20056;-60
2021/10/04 11:11:42;;;;;;;1.70;1.10;;;;;;;28.57;30.18;100365.06;5069452;28;20056;-60
2021/10/04 11:14:13;;;;;;;2.75;1.23;;;;;;;27.66;31.63;100368.75;5066111;28;20056;-60
2021/10/04 11:16:48;;;;;;;2.53;1.45;;;;;;;27.38;32.72;100366.34;5064122;28;20371;-60
2021/10/04 11:19:25;;;;;;;3.25;1.00;;;;;;;27.00;32.55;100364.41;5062856;28;20058;-60
2021/10/04 11:21:52;;;;;;;2.47;1.00;;;;;;;26.38;33.55;100357.06;5054510;28;20064;-60
2021/10/04 11:24:21;;;;;;;3.72;0.95;;;;;;;26.67;33.77;100357.56;5059236;28;20071;-59
2021/10/04 11:26:50;;;;;;;2.42;0.98;;;;;;;25.94;33.16;100376.69;5072463;28;20053;-60
2021/10/04 11:29:21;;;;;;;3.60;1.23;;;;;;;26.05;33.18;100348.03;5064617;28;20057;-60
2021/10/04 11:31:50;;;;;;;3.92;1.63;;;;;;;25.49;33.56;100362.38;5063195;28;20437;-60
2021/10/04 11:34:19;;;;;;;2.30;1.10;;;;;;;26.85;31.69;100349.53;5071592;28;20056;-60
2021/10/04 11:36:48;;;;;;;2.33;1.10;;;;;;;27.80;30.24;100358.28;5060423;28;20057;-60